Time;durP1;ratioP1;P1;durP2;ratioP2;P2;SDS_P1;SDS_P2;PMS_P1;PMS_P2;Temp;Humidity;BMP_temperature;BMP_pressure;BME280_temperature;BME280_humidity;BME280_pressure;Samples;Min_cycle;Max_cycle;Signal;HPM_P1;HPM_P2
2023/02/07 00:02:08;;;;;;;20.98;16.08;;;;;;;-1.68;58.35;101623.13;5071939;28;20025;-38
2023/02/07 00:04:34;;;;;;;38.53;23.58;;;;;;;-1.28;57.99;101672.84;5072055;28;20477;-37
2023/02/07 00:06:59;;;;;;;55.22;33.65;;;;;;;-1.34;57.77;101653.13;5071790;28;20027;-37
2023/02/07 00:09:25;;;;;;;69.97;39.05;;;;;;;-1.16;57.51;101672.00;5071537;28;20036;-37
2023/02/07 00:11:50;;;;;;;29.55;15.60;;;;;;;-1.46;58.07;101667.03;5071762;28;20020;-36
2023/02/07 00:14:15;;;;;;;54.90;24.67;;;;;;;-1.25;57.93;101683.09;5071047;28;20111;-37
2023/02/07 00:16:43;;;;;;;40.60;20.92;;;;;;;-1.27;57.39;101667.50;5071454;28;20023;-37
2023/02/07 00:19:09;;;;;;;50.03;24.58;;;;;;;-1.07;57.18;101678.41;5071798;28;20063;-36
2023/02/07 00:21:35;;;;;;;53.92;26.67;;;;;;;-0.85;55.92;101678.63;5071564;28;20051;-37
2023/02/07 00:24:01;;;;;;;13.82;7.18;;;;;;;-1.11;57.78;101674.31;5071475;28;20035;-37
2023/02/07 00:26:27;;;;;;;23.75;16.40;;;;;;;-1.03;58.16;101682.47;5071946;28;20025;-37
2023/02/07 00:28:53;;;;;;;15.20;10.45;;;;;;;-1.11;56.81;101671.69;5071386;28;20117;-37
2023/02/07 00:31:22;;;;;;;24.20;15.93;;;;;;;-1.10;56.73;101686.47;5082644;28;20062;-37
2023/02/07 00:33:49;;;;;;;11.65;5.22;;;;;;;-0.94;56.92;101697.59;5071519;28;20036;-37
2023/02/07 00:36:18;;;;;;;14.98;9.63;;;;;;;-0.92;57.21;101685.22;5084079;28;20032;-37
2023/02/07 00:38:47;;;;;;;9.93;5.50;;;;;;;-0.78;57.15;101697.34;5090976;28;20036;-36
2023/02/07 00:41:14;;;;;;;10.05;5.43;;;;;;;-1.00;57.76;101671.81;5091255;28;20395;-37
2023/02/07 00:43:41;;;;;;;14.20;5.78;;;;;;;-0.81;57.32;101694.97;5091037;28;20055;-37
2023/02/07 00:46:07;;;;;;;10.88;4.53;;;;;;;-0.88;57.82;101691.06;5091616;28;20103;-37
2023/02/07 00:48:32;;;;;;;7.68;3.50;;;;;;;-0.82;57.85;101699.38;5072244;28;20123;-37
2023/02/07 00:50:58;;;;;;;7.65;3.63;;;;;;;-1.01;57.79;101688.47;5085764;28;20024;-37
2023/02/07 00:53:25;;;;;;;8.57;3.55;;;;;;;-1.15;59.25;101671.06;5070902;28;20021;-37
2023/02/07 00:55:50;;;;;;;6.40;3.03;;;;;;;-1.21;59.58;101676.69;5070761;28;20111;-37
2023/02/07 00:58:16;;;;;;;6.85;3.28;;;;;;;-1.33;58.79;101669.66;5070436;28;20089;-38
2023/02/07 01:00:41;;;;;;;7.75;3.70;;;;;;;-1.12;58.81;101696.22;5070943;28;20454;-37
2023/02/07 01:03:07;;;;;;;9.70;5.25;;;;;;;-1.04;58.71;101699.16;5070622;28;20035;-38
2023/02/07 01:05:32;;;;;;;6.30;3.22;;;;;;;-1.05;59.31;101692.22;5070538;28;20382;-37
2023/02/07 01:07:57;;;;;;;8.50;3.67;;;;;;;-1.16;58.95;101702.59;5070765;28;20032;-37
2023/02/07 01:10:23;;;;;;;8.15;3.58;;;;;;;-1.27;58.30;101706.75;5070670;28;20438;-37
2023/02/07 01:12:50;;;;;;;7.15;3.33;;;;;;;-1.23;59.34;101704.75;5070364;28;20468;-37
2023/02/07 01:15:16;;;;;;;7.75;3.47;;;;;;;-1.43;59.44;101679.91;5070604;28;20024;-37
2023/02/07 01:17:42;;;;;;;8.40;3.83;;;;;;;-1.28;59.86;101689.38;5070401;28;20028;-37
2023/02/07 01:20:08;;;;;;;7.88;3.42;;;;;;;-1.06;59.93;101696.63;5070486;28;20023;-38
2023/02/07 01:22:36;;;;;;;33.90;15.25;;;;;;;-1.07;59.16;101694.09;5070261;28;20025;-37
2023/02/07 01:25:01;;;;;;;8.77;4.00;;;;;;;-1.15;59.90;101694.63;5070346;28;20029;-37
2023/02/07 01:27:27;;;;;;;16.02;7.13;;;;;;;-1.27;59.53;101669.25;5068890;28;20028;-37
2023/02/07 01:29:52;;;;;;;9.93;4.20;;;;;;;-1.28;60.58;101668.44;5070705;28;20656;-37
2023/02/07 01:32:18;;;;;;;7.60;3.72;;;;;;;-1.42;60.25;101671.94;5063361;28;20484;-37
2023/02/07 01:34:43;;;;;;;9.32;3.67;;;;;;;-1.43;60.51;101670.28;5070162;28;20093;-37
2023/02/07 01:37:08;;;;;;;7.90;3.80;;;;;;;-1.35;61.41;101688.09;5069992;28;20044;-38
2023/02/07 01:39:34;;;;;;;8.48;3.38;;;;;;;-1.45;61.31;101679.16;5069665;28;20112;-37
2023/02/07 01:42:00;;;;;;;7.45;3.42;;;;;;;-1.33;59.67;101686.19;5069775;28;20377;-37
2023/02/07 01:44:25;;;;;;;7.93;3.50;;;;;;;-1.30;58.73;101691.25;5069980;28;20037;-37
2023/02/07 01:46:52;;;;;;;8.52;3.53;;;;;;;-1.33;59.08;101653.97;5072593;28;20031;-38
2023/02/07 01:49:23;;;;;;;13.75;6.93;;;;;;;-1.38;58.73;101659.50;5077130;28;20036;-36
2023/02/07 01:51:52;;;;;;;11.10;4.47;;;;;;;-1.71;61.39;101671.25;5070081;28;20037;-37
2023/02/07 01:54:20;;;;;;;10.45;4.82;;;;;;;-1.47;60.99;101686.28;5052206;28;20032;-36
2023/02/07 01:56:53;;;;;;;21.77;10.55;;;;;;;-1.33;60.05;101686.19;5069659;28;20416;-37
2023/02/07 01:59:20;;;;;;;20.35;9.95;;;;;;;-1.63;60.37;101653.28;5068364;28;20044;-38
2023/02/07 02:01:46;;;;;;;18.08;8.18;;;;;;;-1.72;60.84;101664.34;5069674;28;20020;-37
2023/02/07 02:04:12;;;;;;;12.15;6.47;;;;;;;-1.78;60.70;101671.75;5069562;28;20404;-37
2023/02/07 02:06:39;;;;;;;13.32;5.65;;;;;;;-1.90;60.20;101665.53;5069430;28;20024;-38
2023/02/07 02:09:10;;;;;;;11.18;5.63;;;;;;;-1.48;59.42;101684.59;5069493;28;20051;-37
2023/02/07 02:12:12;;;;;;;11.73;5.03;;;;;;;-1.44;60.10;101693.94;5069329;28;20039;-37
2023/02/07 02:14:49;;;;;;;9.48;4.10;;;;;;;-1.61;60.29;101697.66;5034856;28;20116;-38
2023/02/07 02:17:27;;;;;;;8.07;4.00;;;;;;;-1.57;61.77;101693.91;5069212;28;20027;-37
2023/02/07 02:20:09;;;;;;;7.25;3.60;;;;;;;-1.57;61.73;101685.19;5069509;28;20117;-37
2023/02/07 02:22:52;;;;;;;10.25;4.97;;;;;;;-1.72;62.06;101685.25;5069407;28;20024;-37
2023/02/07 02:25:45;;;;;;;9.40;4.03;;;;;;;-1.59;62.30;101695.78;5069324;28;20035;-37
2023/02/07 02:28:41;;;;;;;11.70;4.70;;;;;;;-1.58;63.18;101680.91;5069306;28;20495;-37
2023/02/07 02:31:12;;;;;;;9.73;3.85;;;;;;;-1.78;63.37;101685.66;5072026;28;20024;-37
2023/02/07 02:33:47;;;;;;;23.15;12.50;;;;;;;-1.68;63.36;101689.34;5077915;28;20075;-37
2023/02/07 02:36:15;;;;;;;11.68;6.28;;;;;;;-1.55;63.26;101685.94;5069158;28;20025;-38
2023/02/07 02:38:48;;;;;;;9.93;4.40;;;;;;;-1.58;63.11;101692.22;5068725;28;20462;-36
2023/02/07 02:41:20;;;;;;;7.97;4.10;;;;;;;-1.53;62.63;101694.53;5069154;28;20055;-37
2023/02/07 02:44:01;;;;;;;25.60;11.10;;;;;;;-1.74;62.73;101655.75;5071234;28;20082;-37
2023/02/07 02:46:33;;;;;;;8.65;4.32;;;;;;;-1.50;62.50;101678.63;5078953;28;20562;-37
2023/02/07 02:49:00;;;;;;;43.28;21.52;;;;;;;-1.76;63.00;101688.19;5089522;28;20043;-37
2023/02/07 02:51:30;;;;;;;12.57;6.78;;;;;;;-1.80;64.27;101691.94;5087662;28;20034;-37
2023/02/07 02:53:57;;;;;;;11.85;6.57;;;;;;;-1.77;64.26;101692.56;5089736;28;20036;-37
2023/02/07 02:56:50;;;;;;;14.93;7.25;;;;;;;-1.70;63.59;101679.94;5089409;28;20024;-37
2023/02/07 02:59:40;;;;;;;11.40;6.93;;;;;;;-1.65;65.18;101697.00;5082986;28;20109;-37
2023/02/07 03:02:44;;;;;;;16.77;8.23;;;;;;;-1.49;64.19;101694.25;5068748;28;20028;-38
2023/02/07 03:05:36;;;;;;;15.68;8.60;;;;;;;-1.40;64.14;101698.03;5052429;28;20048;-38
2023/02/07 03:08:17;;;;;;;18.30;6.82;;;;;;;-1.53;63.59;101689.28;5069033;28;20526;-37
2023/02/07 03:11:01;;;;;;;11.40;5.65;;;;;;;-1.48;65.07;101692.47;5077759;28;20039;-37
2023/02/07 03:13:36;;;;;;;16.10;8.23;;;;;;;-1.45;63.42;101697.47;5068708;28;20112;-37
2023/02/07 03:16:14;;;;;;;12.25;6.40;;;;;;;-1.19;62.33;101708.03;5069009;28;20020;-37
2023/02/07 03:19:01;;;;;;;20.38;9.90;;;;;;;-1.31;63.46;101702.69;5068892;28;20028;-37
2023/02/07 03:21:34;;;;;;;18.63;10.32;;;;;;;-1.36;62.98;101696.88;5068708;28;20791;-37
2023/02/07 03:24:06;;;;;;;28.40;17.08;;;;;;;-1.32;63.06;101693.13;5068835;28;20028;-38
2023/02/07 03:26:34;;;;;;;13.48;8.52;;;;;;;-1.25;61.16;101670.84;5068955;28;20032;-37
2023/02/07 03:29:01;;;;;;;12.17;8.67;;;;;;;-1.31;61.83;101700.06;5068946;28;20105;-37
2023/02/07 03:31:29;;;;;;;11.35;7.28;;;;;;;-1.33;61.72;101691.44;5068416;28;20040;-37
2023/02/07 03:34:03;;;;;;;14.43;9.80;;;;;;;-1.41;61.97;101675.41;5079928;28;20032;-37
2023/02/07 03:36:41;;;;;;;10.82;5.90;;;;;;;-1.22;61.13;101688.13;5069001;28;20064;-37
2023/02/07 03:39:07;;;;;;;9.57;5.13;;;;;;;-1.06;60.68;101703.66;5068445;28;20113;-37
2023/02/07 03:41:41;;;;;;;18.55;10.60;;;;;;;-1.43;61.05;101657.22;5069188;28;20040;-37
2023/02/07 03:44:09;;;;;;;53.60;25.42;;;;;;;-1.25;62.28;101694.41;5078362;28;20024;-37
2023/02/07 03:46:35;;;;;;;;;;;;;;;-1.35;62.83;101702.94;5051168;28;20024;-37
2023/02/07 03:49:01;;;;;;;20.83;13.65;;;;;;;-1.35;62.61;101695.94;5077227;28;19920;-38
2023/02/07 03:51:26;;;;;;;18.35;11.27;;;;;;;-1.46;62.57;101674.88;5074533;28;20032;-37
2023/02/07 03:53:52;;;;;;;19.23;10.50;;;;;;;-1.12;61.99;101693.59;5072217;28;20021;-37
2023/02/07 03:56:17;;;;;;;20.05;14.75;;;;;;;-1.28;62.23;101697.22;5072169;28;20025;-37
2023/02/07 03:58:43;;;;;;;16.58;11.52;;;;;;;-1.44;62.02;101683.47;5070797;28;20048;-37
2023/02/07 04:01:08;;;;;;;21.02;13.15;;;;;;;-1.35;62.90;101698.56;5071909;28;20024;-37
2023/02/07 04:03:34;;;;;;;14.95;8.18;;;;;;;-1.49;64.03;101665.47;5071647;28;20484;-37
2023/02/07 04:05:59;;;;;;;17.38;8.80;;;;;;;-1.45;63.81;101687.00;5071610;28;20728;-37
2023/02/07 04:08:24;;;;;;;21.20;10.60;;;;;;;-1.49;63.72;101672.44;5071680;28;20028;-37
2023/02/07 04:10:58;;;;;;;19.13;10.70;;;;;;;-1.51;65.26;101693.50;5071718;28;20033;-38
2023/02/07 04:13:23;;;;;;;20.00;9.98;;;;;;;-1.81;66.73;101670.16;5071643;28;20025;-37
2023/02/07 04:15:49;;;;;;;16.33;8.05;;;;;;;-1.54;66.98;101693.69;5074286;28;20039;-38
2023/02/07 04:18:14;;;;;;;14.00;6.90;;;;;;;-1.82;67.88;101689.41;5080351;28;20020;-37
2023/02/07 04:20:40;;;;;;;14.93;7.10;;;;;;;-1.82;67.31;101676.31;5053676;28;20037;-37
2023/02/07 04:23:05;;;;;;;11.70;6.22;;;;;;;-1.63;66.53;101679.44;5072179;28;20028;-38
2023/02/07 04:25:33;;;;;;;14.95;7.85;;;;;;;-1.56;66.08;101690.34;5082329;28;20093;-37
2023/02/07 04:27:58;;;;;;;17.77;9.50;;;;;;;-1.46;66.02;101701.06;5071333;28;20158;-37
2023/02/07 04:30:23;;;;;;;48.92;21.50;;;;;;;-1.56;66.10;101689.50;5053467;28;20122;-37
2023/02/07 04:32:49;;;;;;;69.75;25.95;;;;;;;-1.39;65.30;101694.47;5080913;28;20031;-37
2023/02/07 04:35:14;;;;;;;48.85;21.38;;;;;;;-1.46;65.45;101714.13;5072502;28;20421;-37
2023/02/07 04:37:40;;;;;;;43.63;19.08;;;;;;;-1.45;66.31;101697.47;5071249;28;20041;-37
2023/02/07 04:40:06;;;;;;;41.90;20.15;;;;;;;-1.62;66.96;101696.81;5074712;28;20139;-37
2023/02/07 04:42:34;;;;;;;41.38;19.23;;;;;;;-1.48;66.99;101716.84;5078714;28;20090;-37
2023/02/07 04:44:59;;;;;;;37.90;19.35;;;;;;;-1.46;65.71;101732.44;5071251;28;20389;-36
2023/02/07 04:47:25;;;;;;;39.25;19.90;;;;;;;-1.51;65.96;101719.66;5070664;28;20094;-37
2023/02/07 04:49:50;;;;;;;34.75;17.83;;;;;;;-1.62;66.11;101717.72;5070849;28;20036;-37
2023/02/07 04:52:15;;;;;;;42.08;18.60;;;;;;;-1.52;65.92;101741.53;5071298;28;20028;-37
2023/02/07 04:54:41;;;;;;;41.38;18.35;;;;;;;-1.53;67.33;101752.94;5070794;28;20028;-37
2023/02/07 04:57:06;;;;;;;42.97;21.05;;;;;;;-1.68;66.22;101748.69;5071300;28;20027;-37
2023/02/07 04:59:32;;;;;;;31.13;14.65;;;;;;;-1.82;67.30;101746.94;5070626;28;20064;-37
2023/02/07 05:01:57;;;;;;;22.13;11.63;;;;;;;-2.03;67.87;101743.91;5070392;28;20470;-37
2023/02/07 05:04:22;;;;;;;21.95;12.15;;;;;;;-1.60;67.48;101758.66;5070939;28;20032;-37
2023/02/07 05:06:48;;;;;;;23.60;13.85;;;;;;;-1.74;67.00;101734.22;5070824;28;20431;-37
2023/02/07 05:09:13;;;;;;;18.75;9.70;;;;;;;-1.89;67.73;101729.97;5070601;28;20036;-38
2023/02/07 05:11:39;;;;;;;20.30;12.25;;;;;;;-1.90;66.23;101738.72;5070560;28;20599;-37
2023/02/07 05:14:04;;;;;;;19.40;10.02;;;;;;;-1.78;67.81;101765.91;5052866;28;20071;-37
2023/02/07 05:16:30;;;;;;;18.50;10.07;;;;;;;-2.05;68.12;101756.22;5070326;28;20115;-37
2023/02/07 05:18:55;;;;;;;15.70;8.15;;;;;;;-1.88;67.85;101773.47;5070046;28;20123;-37
2023/02/07 05:21:21;;;;;;;14.30;8.07;;;;;;;-1.79;67.58;101756.38;5069931;28;20025;-37
2023/02/07 05:23:46;;;;;;;17.10;7.20;;;;;;;-1.76;67.12;101746.53;5070316;28;20021;-37
2023/02/07 05:26:13;;;;;;;282.45;86.28;;;;;;;-1.70;66.63;101767.09;5070291;28;20115;-37
2023/02/07 05:28:38;;;;;;;32.38;15.55;;;;;;;-1.76;67.26;101764.84;5070037;28;20058;-38
2023/02/07 05:31:04;;;;;;;17.60;9.02;;;;;;;-1.76;66.74;101750.94;5070005;28;20028;-37
2023/02/07 05:33:29;;;;;;;13.70;6.88;;;;;;;-1.60;66.52;101769.13;5076086;28;20713;-38
2023/02/07 05:35:55;;;;;;;16.90;7.55;;;;;;;-1.58;67.39;101764.63;5076011;28;20024;-37
2023/02/07 05:38:20;;;;;;;23.88;8.68;;;;;;;-1.91;68.90;101739.69;5078912;28;20035;-37
2023/02/07 05:40:47;;;;;;;50.28;21.20;;;;;;;-1.50;68.78;101772.84;5072505;28;20105;-37
2023/02/07 05:43:13;;;;;;;58.70;23.50;;;;;;;-1.48;67.91;101765.72;5051844;28;20092;-37
2023/02/07 05:45:39;;;;;;;52.03;20.85;;;;;;;-1.57;68.39;101766.31;5070021;28;20071;-37
2023/02/07 05:48:05;;;;;;;43.40;15.60;;;;;;;-1.70;69.45;101772.31;5069906;28;20071;-37
2023/02/07 05:50:30;;;;;;;35.75;15.80;;;;;;;-1.65;70.09;101770.25;5070072;28;20028;-37
2023/02/07 05:52:56;;;;;;;37.42;15.63;;;;;;;-1.60;70.14;101776.97;5069840;28;20025;-37
2023/02/07 05:55:21;;;;;;;47.78;24.55;;;;;;;-1.48;68.32;101781.44;5069740;28;20107;-37
2023/02/07 05:57:47;;;;;;;38.88;18.85;;;;;;;-1.47;68.48;101767.38;5069753;28;20509;-37
2023/02/07 06:00:14;;;;;;;40.92;20.42;;;;;;;-1.59;68.29;101757.72;5069663;28;20100;-37
2023/02/07 06:02:41;;;;;;;54.10;23.07;;;;;;;-1.48;68.69;101770.97;5069600;28;20052;-37
2023/02/07 06:05:12;;;;;;;67.40;26.08;;;;;;;-1.19;68.41;101794.41;5069815;28;20021;-37
2023/02/07 06:07:38;;;;;;;80.03;33.10;;;;;;;-1.26;69.10;101797.41;5069673;28;20025;-37
2023/02/07 06:10:05;;;;;;;89.28;33.97;;;;;;;-1.38;68.74;101777.28;5069392;28;20032;-37
2023/02/07 06:12:31;;;;;;;62.28;25.80;;;;;;;-1.15;67.66;101798.50;5069024;28;20032;-37
2023/02/07 06:14:57;;;;;;;47.67;22.10;;;;;;;-1.27;68.91;101795.75;5069344;28;20081;-37
2023/02/07 06:17:23;;;;;;;50.42;24.75;;;;;;;-1.19;68.78;101776.09;5069299;28;20024;-37
2023/02/07 06:19:49;;;;;;;55.85;25.25;;;;;;;-0.85;66.72;101791.25;5069673;28;20024;-37
2023/02/07 06:22:14;;;;;;;50.67;22.50;;;;;;;-0.60;66.43;101805.31;5069207;28;20035;-37
2023/02/07 06:24:40;;;;;;;38.25;19.17;;;;;;;-0.53;63.93;101796.13;5051545;28;20097;-37
2023/02/07 06:27:05;;;;;;;42.22;20.58;;;;;;;-0.31;63.20;101799.88;5069247;28;20029;-37
2023/02/07 06:29:31;;;;;;;45.90;19.60;;;;;;;-0.35;63.07;101814.13;5068942;28;20028;-37
2023/02/07 06:31:56;;;;;;;36.63;18.75;;;;;;;-0.69;62.99;101771.91;5069238;28;20024;-38
2023/02/07 06:34:22;;;;;;;48.03;21.73;;;;;;;-0.35;62.68;101814.13;5077638;28;20539;-37
2023/02/07 06:36:47;;;;;;;46.33;21.48;;;;;;;-0.31;62.22;101815.59;5082895;28;20575;-37
2023/02/07 06:39:13;;;;;;;31.60;18.80;;;;;;;-0.42;59.50;101787.50;5069074;28;20044;-38
2023/02/07 06:41:38;;;;;;;29.02;12.95;;;;;;;-0.04;58.73;101818.09;5069622;28;20568;-37
2023/02/07 06:44:06;;;;;;;33.10;14.23;;;;;;;-0.23;59.23;101797.56;5068945;28;20039;-37
2023/02/07 06:46:31;;;;;;;31.73;16.17;;;;;;;-0.04;59.32;101818.97;5069698;28;20027;-37
2023/02/07 06:48:56;;;;;;;41.08;18.73;;;;;;;0.09;58.35;101818.09;5069156;28;20370;-38
2023/02/07 06:51:22;;;;;;;27.48;12.63;;;;;;;-0.03;58.18;101799.66;5069028;28;20028;-38
2023/02/07 06:53:47;;;;;;;33.58;17.08;;;;;;;-0.03;58.63;101804.88;5079910;28;20028;-38
2023/02/07 06:56:13;;;;;;;26.73;14.68;;;;;;;-0.06;59.67;101812.97;5072421;28;20472;-37
2023/02/07 06:58:38;;;;;;;25.83;14.95;;;;;;;0.20;57.66;101810.31;5068847;28;20082;-37
2023/02/07 07:01:04;;;;;;;24.85;11.93;;;;;;;0.26;57.80;101799.38;5050980;28;20492;-37
2023/02/07 07:03:29;;;;;;;16.95;8.43;;;;;;;0.67;54.79;101823.59;5079952;28;20028;-37
2023/02/07 07:05:58;;;;;;;15.43;7.30;;;;;;;0.73;55.04;101802.97;5069306;28;20062;-37
2023/02/07 07:08:25;;;;;;;18.58;9.18;;;;;;;0.35;56.63;101803.97;5069001;28;20024;-38
2023/02/07 07:10:51;;;;;;;18.10;8.60;;;;;;;0.16;56.66;101803.59;5088411;28;20430;-38
2023/02/07 07:13:17;;;;;;;21.65;9.30;;;;;;;0.51;57.92;101821.25;5088820;28;20039;-37
2023/02/07 07:15:42;;;;;;;15.32;7.13;;;;;;;0.40;56.19;101796.59;5089190;28;20028;-38
2023/02/07 07:18:07;;;;;;;15.80;7.60;;;;;;;0.50;55.96;101795.94;5088985;28;20590;-38
2023/02/07 07:20:33;;;;;;;22.13;8.50;;;;;;;0.82;53.88;101813.75;5089484;28;20487;-37
2023/02/07 07:22:58;;;;;;;21.48;10.65;;;;;;;0.98;53.18;101822.19;5089134;28;20456;-38
2023/02/07 07:25:24;;;;;;;16.00;8.00;;;;;;;1.07;53.16;101794.44;5090682;28;20028;-37
2023/02/07 07:27:51;;;;;;;14.80;7.45;;;;;;;1.13;52.79;101821.06;5092502;28;20055;-38
2023/02/07 07:30:16;;;;;;;13.40;6.88;;;;;;;1.30;53.64;101821.59;5074232;28;20028;-38
2023/02/07 07:32:42;;;;;;;69.38;30.60;;;;;;;0.98;52.26;101793.28;5077524;28;20093;-38
2023/02/07 07:35:07;;;;;;;13.30;7.45;;;;;;;1.22;51.60;101797.69;5080014;28;20024;-37
2023/02/07 07:37:35;;;;;;;12.23;6.88;;;;;;;1.50;51.16;101815.69;5072294;28;20110;-37
2023/02/07 07:40:00;;;;;;;10.63;5.05;;;;;;;1.65;50.71;101799.69;5072233;28;20063;-38
2023/02/07 07:42:26;;;;;;;11.10;5.75;;;;;;;1.84;48.83;101807.84;5072148;28;20040;-38
2023/02/07 07:44:51;;;;;;;12.35;5.93;;;;;;;1.70;49.57;101787.03;5049913;28;20025;-37
2023/02/07 07:47:17;;;;;;;17.30;8.45;;;;;;;1.75;50.84;101776.97;5073084;28;20024;-38
2023/02/07 07:49:43;;;;;;;16.17;9.05;;;;;;;2.16;48.92;101789.50;5091865;28;20112;-37
2023/02/07 07:52:08;;;;;;;11.88;5.20;;;;;;;2.37;46.25;101808.03;5091669;28;20016;-38
2023/02/07 07:54:34;;;;;;;20.23;6.63;;;;;;;2.14;45.29;101799.31;5091732;28;20464;-37
2023/02/07 07:56:59;;;;;;;10.68;5.30;;;;;;;2.00;46.64;101789.03;5087833;28;20537;-38
2023/02/07 07:59:25;;;;;;;19.27;9.10;;;;;;;2.05;47.21;101797.44;5090176;28;20039;-38
2023/02/07 08:01:51;;;;;;;9.57;4.55;;;;;;;1.85;46.32;101772.66;5091641;28;20020;-38
2023/02/07 08:04:16;;;;;;;12.52;8.68;;;;;;;2.34;46.08;101803.00;5091515;28;20057;-38
2023/02/07 08:06:41;;;;;;;8.95;4.78;;;;;;;2.04;43.70;101784.38;5091697;28;20055;-38
2023/02/07 08:09:07;;;;;;;10.93;5.15;;;;;;;2.13;45.11;101783.66;5091459;28;20050;-38
2023/02/07 08:11:32;;;;;;;11.45;5.38;;;;;;;2.62;44.70;101811.34;5091044;28;20726;-38
2023/02/07 08:13:58;;;;;;;17.45;9.48;;;;;;;3.03;42.54;101809.75;5091665;28;20446;-38
2023/02/07 08:16:23;;;;;;;9.18;4.82;;;;;;;2.80;43.34;101788.78;5091628;28;20519;-38
2023/02/07 08:18:49;;;;;;;110.43;75.65;;;;;;;2.83;43.18;101792.13;5092007;28;20030;-38
2023/02/07 08:21:14;;;;;;;34.22;24.08;;;;;;;3.05;41.94;101802.56;5091855;28;20416;-38
2023/02/07 08:23:40;;;;;;;29.02;20.92;;;;;;;3.15;42.04;101782.38;5091303;28;20476;-38
2023/02/07 08:26:06;;;;;;;31.27;21.95;;;;;;;3.42;41.08;101805.59;5091709;28;20028;-38
2023/02/07 08:28:32;;;;;;;10.82;5.00;;;;;;;3.39;41.42;101791.81;5091816;28;20055;-38
2023/02/07 08:31:03;;;;;;;59.85;37.58;;;;;;;3.32;41.04;101801.22;5067448;28;20101;-38
2023/02/07 08:33:29;;;;;;;20.80;12.45;;;;;;;3.66;41.10;101806.25;5077696;28;20033;-38
2023/02/07 08:35:54;;;;;;;22.38;14.13;;;;;;;3.74;41.48;101801.16;5089402;28;20044;-37
2023/02/07 08:38:20;;;;;;;10.98;5.68;;;;;;;3.86;41.15;101776.38;5091234;28;20515;-37
2023/02/07 08:40:45;;;;;;;8.32;5.22;;;;;;;3.49;39.65;101778.69;5091284;28;20491;-37
2023/02/07 08:43:12;;;;;;;12.52;4.25;;;;;;;3.62;39.60;101784.59;5091759;28;20375;-37
2023/02/07 08:45:47;;;;;;;14.13;9.25;;;;;;;4.18;40.44;101791.22;5091023;28;20031;-37
2023/02/07 08:48:13;;;;;;;10.93;6.70;;;;;;;4.36;38.20;101784.31;5091502;28;20110;-38
2023/02/07 08:50:38;;;;;;;38.80;32.13;;;;;;;4.53;38.72;101796.00;5072962;28;20024;-38
2023/02/07 08:53:03;;;;;;;11.18;4.60;;;;;;;4.48;37.83;101773.63;5091177;28;20020;-38
2023/02/07 08:55:29;;;;;;;10.90;5.32;;;;;;;4.71;39.26;101793.53;5072629;28;20089;-38
2023/02/07 08:57:55;;;;;;;9.95;5.10;;;;;;;3.54;40.37;101764.16;5091260;28;20028;-37
2023/02/07 09:00:21;;;;;;;9.98;4.30;;;;;;;3.24;40.56;101785.22;5091213;28;20064;-37
2023/02/07 09:02:46;;;;;;;11.27;5.47;;;;;;;2.42;41.80;101774.28;5091421;28;20016;-37
2023/02/07 09:05:11;;;;;;;8.73;4.68;;;;;;;2.26;42.71;101796.69;5072882;28;20110;-37
2023/02/07 09:07:37;;;;;;;22.75;8.10;;;;;;;2.32;42.68;101760.16;5090681;28;20028;-37
2023/02/07 09:10:05;;;;;;;9.75;5.28;;;;;;;2.42;42.72;101778.72;5090689;28;20096;-38
2023/02/07 09:12:31;;;;;;;12.20;5.45;;;;;;;2.68;42.57;101800.31;5090799;28;20023;-37
2023/02/07 09:14:57;;;;;;;14.00;5.53;;;;;;;2.70;42.80;101777.31;5090783;28;20036;-37
2023/02/07 09:17:22;;;;;;;11.13;5.00;;;;;;;2.65;43.69;101800.53;5090525;28;20036;-37
2023/02/07 09:19:48;;;;;;;10.25;5.15;;;;;;;2.65;44.47;101792.63;5072627;28;20066;-38
2023/02/07 09:22:13;;;;;;;13.88;4.65;;;;;;;2.87;42.20;101788.25;5090460;28;20028;-37
2023/02/07 09:24:39;;;;;;;13.85;8.23;;;;;;;2.90;41.98;101772.19;5090288;28;20056;-38
2023/02/07 09:27:04;;;;;;;9.77;5.15;;;;;;;2.49;42.94;101792.22;5090465;28;20036;-37
2023/02/07 09:29:33;;;;;;;9.98;4.80;;;;;;;2.07;42.90;101763.09;5084640;28;20039;-37
2023/02/07 09:31:58;;;;;;;;;;;;;;;2.32;43.26;101783.88;5070848;28;20031;-38
2023/02/07 09:34:24;;;;;;;11.32;5.90;;;;;;;2.52;44.50;101787.53;5070073;28;19999;-37
2023/02/07 09:36:49;;;;;;;11.07;5.00;;;;;;;2.25;44.71;101777.44;5072896;28;20043;-37
2023/02/07 09:39:15;;;;;;;11.52;5.63;;;;;;;2.01;44.19;101753.91;5078178;28;20064;-36
2023/02/07 09:42:42;;;;;;;11.95;5.95;;;;;;;2.75;43.22;101775.13;5070182;28;20046;-37
2023/02/07 09:45:12;;;;;;;14.68;6.60;;;;;;;3.50;43.26;101769.84;5003819;28;20041;-38
2023/02/07 09:47:42;;;;;;;9.10;5.32;;;;;;;3.96;41.93;101758.78;5068765;28;20111;-37
2023/02/07 09:50:21;;;;;;;11.02;5.90;;;;;;;4.39;40.86;101731.22;5052041;28;20476;-36
2023/02/07 09:52:52;;;;;;;15.13;7.32;;;;;;;4.21;40.55;101738.16;5069637;28;20063;-37
2023/02/07 09:55:23;;;;;;;13.63;5.65;;;;;;;3.72;41.19;101758.25;5069653;28;20039;-37
2023/02/07 09:57:56;;;;;;;10.38;4.78;;;;;;;2.84;42.08;101760.38;5069495;28;20071;-36
2023/02/07 10:00:36;;;;;;;12.13;6.47;;;;;;;3.29;42.53;101740.81;5069920;28;20025;-37
2023/02/07 10:03:20;;;;;;;23.65;10.57;;;;;;;3.12;41.78;101756.25;5069489;28;20033;-35
2023/02/07 10:06:00;;;;;;;10.80;5.20;;;;;;;3.09;42.51;101743.34;5069481;28;20033;-36
2023/02/07 10:08:26;;;;;;;9.40;4.82;;;;;;;3.25;41.74;101729.72;5069736;28;20028;-37
2023/02/07 10:11:14;;;;;;;10.30;5.07;;;;;;;3.58;40.95;101730.44;5069392;28;20037;-36
2023/02/07 10:14:00;;;;;;;11.30;5.53;;;;;;;4.08;40.66;101733.09;5069626;28;20050;-37
2023/02/07 10:16:38;;;;;;;15.07;8.95;;;;;;;4.37;40.98;101727.88;5069572;28;20104;-37
2023/02/07 10:19:28;;;;;;;9.05;4.18;;;;;;;4.00;38.40;101710.03;5069481;28;20033;-37
2023/02/07 10:21:56;;;;;;;8.88;4.05;;;;;;;4.68;37.13;101738.34;5069497;28;20029;-38
2023/02/07 10:24:36;;;;;;;7.07;3.40;;;;;;;4.58;36.59;101727.75;5069279;28;20043;-37
2023/02/07 10:27:11;;;;;;;28.08;13.70;;;;;;;5.07;36.19;101719.78;5082618;28;20043;-37
2023/02/07 10:30:09;;;;;;;8.02;4.40;;;;;;;5.71;35.62;101726.13;5069137;28;20047;-37
2023/02/07 10:32:37;;;;;;;6.65;3.50;;;;;;;5.63;33.35;101726.03;5051303;28;20035;-37
2023/02/07 10:35:15;;;;;;;10.00;6.75;;;;;;;5.11;34.51;101731.75;5069036;28;20074;-36
2023/02/07 10:37:44;;;;;;;9.85;5.28;;;;;;;5.07;35.25;101719.78;5071815;28;20530;-37
2023/02/07 10:40:26;;;;;;;9.02;5.03;;;;;;;4.73;34.68;101722.88;5079360;28;20052;-37
2023/02/07 10:43:04;;;;;;;11.02;6.38;;;;;;;4.24;35.18;101679.75;5068957;28;20051;-36
2023/02/07 10:45:29;;;;;;;9.93;4.97;;;;;;;3.82;35.31;101695.78;5069361;28;20024;-36
2023/02/07 10:47:56;;;;;;;10.77;5.85;;;;;;;3.86;37.59;101707.75;5068787;28;20047;-37
2023/02/07 10:50:25;;;;;;;13.23;6.78;;;;;;;3.99;36.72;101692.50;5069191;28;20495;-38
2023/02/07 10:52:58;;;;;;;14.48;7.55;;;;;;;3.91;38.15;101679.16;5069467;28;20074;-37
2023/02/07 10:55:40;;;;;;;11.65;6.38;;;;;;;4.25;36.51;101691.16;5067589;28;20036;-37
2023/02/07 10:58:12;;;;;;;11.57;6.32;;;;;;;4.09;36.75;101697.81;5068974;28;20535;-38
2023/02/07 11:00:39;;;;;;;11.63;6.00;;;;;;;3.83;37.37;101689.56;5072807;28;20404;-36
2023/02/07 11:03:06;;;;;;;13.95;7.00;;;;;;;3.70;36.52;101665.19;5073105;28;20039;-37
2023/02/07 11:05:38;;;;;;;12.98;5.95;;;;;;;4.19;37.32;101693.38;5073283;28;20034;-36
2023/02/07 11:08:06;;;;;;;9.70;5.28;;;;;;;4.45;37.13;101686.72;5072918;28;20024;-37
2023/02/07 11:10:41;;;;;;;15.20;6.55;;;;;;;5.07;36.32;101666.91;5073004;28;20036;-37
2023/02/07 11:13:18;;;;;;;14.55;7.50;;;;;;;5.57;35.89;101689.56;5072928;28;20542;-41
2023/02/07 11:15:49;;;;;;;11.75;5.50;;;;;;;5.30;34.06;101682.44;5072936;28;20061;-37
2023/02/07 11:18:38;;;;;;;10.50;5.88;;;;;;;6.09;34.97;101689.88;5072617;28;20032;-37
2023/02/07 11:21:47;;;;;;;37.80;30.10;;;;;;;7.02;32.40;101692.16;5060134;28;20040;-37
2023/02/07 11:24:20;;;;;;;69.38;55.28;;;;;;;6.96;31.54;101693.59;5082269;28;20040;-37
2023/02/07 11:27:01;;;;;;;38.33;29.25;;;;;;;7.24;31.24;101686.31;5072849;28;20523;-37
2023/02/07 11:29:27;;;;;;;13.55;9.98;;;;;;;7.01;30.57;101677.25;5072425;28;20024;-37